EEST,Max TemperatureF,Mean TemperatureF,Min TemperatureF,Max Dew PointF,MeanDew PointF,Min DewpointF,Max Humidity, Mean Humidity, Min Humidity, Max Sea Level PressureIn, Mean Sea Level PressureIn, Min Sea Level PressureIn, Max VisibilityMiles, Mean VisibilityMiles, Min VisibilityMiles, Max Wind SpeedMPH, Mean Wind SpeedMPH, Max Gust SpeedMPH,PrecipitationIn, CloudCover, Events, WindDirDegrees
2013-9-1,88,78,69,51,47,36,49,35,10,29.95,29.91,29.89,9,9,9,25,19,33,0.00,,,356
2013-9-2,86,77,68,54,49,45,49,37,19,30.01,29.95,29.92,9,7,6,25,16,,0.00,1,,3
2013-9-3,88,78,69,57,47,37,57,34,13,30.01,29.97,29.92,9,9,9,25,14,33,0.00,,,1
2013-9-4,85,78,69,59,47,34,68,38,14,30.06,29.99,29.95,9,7,6,22,15,30,0.00,1,,16
2013-9-5,84,74,64,52,41,32,49,33,10,30.06,30.00,29.92,9,9,9,21,13,31,0.00,,,14
2013-9-6,86,71,56,46,41,32,59,34,10,29.95,29.90,29.86,9,9,9,15,7,,0.00,,,5
2013-9-7,89,73,57,54,45,37,72,37,9,29.98,29.95,29.83,9,9,9,21,9,,0.00,,,355
2013-9-8,86,76,67,46,38,28,41,24,7,30.04,29.99,29.95,9,9,9,25,15,32,0.00,,,13
2013-9-9,86,76,66,51,44,37,52,33,13,30.06,30.02,29.98,9,9,9,24,15,,0.00,,,5
2013-9-10,88,73,58,47,43,37,55,32,10,30.06,30.02,29.98,9,9,9,20,10,,0.00,,,8
2013-9-11,92,76,59,52,47,37,72,37,12,30.01,29.98,29.92,9,9,9,18,6,,0.00,,,4
2013-9-12,96,79,62,55,50,46,63,39,14,29.98,29.95,29.89,9,9,9,15,4,,0.00,,,21
2013-9-13,94,78,62,57,54,50,73,45,16,29.95,29.93,29.91,9,9,9,14,5,,0.00,,,102
2013-9-14,82,75,68,63,54,36,73,51,17,29.98,29.95,29.92,9,6,6,20,10,,0.00,1,,2
2013-9-15,81,68,55,55,47,39,77,45,15,29.98,29.93,29.86,9,7,6,21,10,,0.00,1,,352
2013-9-16,86,70,53,64,48,34,88,49,12,29.89,29.78,29.68,9,6,1,17,8,33,0.00,5,Rain-Thunderstorm,186
2013-9-17,82,71,60,63,58,50,94,70,24,29.74,29.70,29.68,9,6,6,13,7,,0.00,3,Rain-Thunderstorm,197
2013-9-18,84,72,61,63,59,55,88,66,33,29.71,29.68,29.65,9,6,6,13,5,,0.00,2,,183
2013-9-19,86,74,61,63,59,52,94,63,22,29.77,29.72,29.68,9,7,6,10,3,,0.00,3,,202
2013-9-20,84,73,62,68,62,57,94,70,31,29.92,29.84,29.77,9,6,3,18,5,28,0.31,5,Rain,46
2013-9-21,79,72,66,64,55,41,88,58,22,29.98,29.95,29.92,9,7,6,21,10,,0.00,1,,354
2013-9-22,77,68,59,45,40,36,52,34,15,30.01,29.97,29.92,9,7,6,24,15,33,0.00,2,,19
2013-9-23,79,68,56,54,45,37,64,44,15,29.95,29.91,29.83,9,7,6,23,15,,0.00,1,,5
2013-9-24,78,65,52,59,49,41,78,53,23,29.95,29.90,29.86,9,7,6,20,8,,0.00,2,,1
2013-9-25,82,68,54,57,52,45,94,60,21,30.04,30.00,29.95,9,7,6,16,4,,0.00,1,,16
2013-9-26,85,69,53,63,51,46,88,57,17,30.04,30.00,29.92,9,9,9,13,3,,0.00,,,189
2013-9-27,82,71,60,61,56,46,94,63,19,29.95,29.90,29.86,9,7,6,16,5,,0.00,1,,47
2013-9-28,84,71,58,61,54,48,88,57,23,29.92,29.90,29.86,9,7,6,17,6,,0.00,1,,8
2013-9-29,88,72,57,57,51,43,82,52,15,29.96,29.91,29.86,9,7,6,16,4,,0.00,1,,6
2013-9-30,88,72,55,54,49,36,82,49,12,29.92,29.84,29.77,9,9,9,17,5,,0.00,,,183